createdAt,value
2023-04-13T00:00:42.261Z,1.98
2023-04-13T00:03:12.649Z,2.03
2023-04-13T00:05:40.439Z,1.83
2023-04-13T00:08:08.276Z,1.80
2023-04-13T00:10:36.620Z,1.88
2023-04-13T00:13:05.396Z,2.20
2023-04-13T00:15:36.969Z,2.40
2023-04-13T00:18:04.631Z,1.80
2023-04-13T00:20:31.722Z,2.50
2023-04-13T00:22:58.772Z,2.30
2023-04-13T00:25:25.928Z,2.55
2023-04-13T00:27:55.708Z,2.97
2023-04-13T00:30:22.933Z,2.17
2023-04-13T00:32:50.326Z,2.55
2023-04-13T00:35:24.985Z,2.22
2023-04-13T00:37:53.088Z,1.70
2023-04-13T00:40:20.528Z,1.98
2023-04-13T00:42:49.584Z,2.33
2023-04-13T00:45:21.139Z,2.10
2023-04-13T00:47:50.857Z,1.95
2023-04-13T00:50:21.260Z,1.95
2023-04-13T00:52:49.310Z,1.98
2023-04-13T00:55:21.255Z,2.30
2023-04-13T00:57:50.486Z,2.33
2023-04-13T01:00:18.826Z,1.80
2023-04-13T01:02:46.040Z,2.20
2023-04-13T01:05:15.759Z,2.15
2023-04-13T01:07:56.242Z,2.45
2023-04-13T01:10:52.544Z,2.35
2023-04-13T01:13:26.529Z,2.72
2023-04-13T01:16:16.859Z,2.55
2023-04-13T01:21:35.009Z,2.72
2023-04-13T01:24:17.885Z,2.47
2023-04-13T01:27:15.367Z,2.28
2023-04-13T01:29:45.560Z,2.42
2023-04-13T01:32:17.546Z,2.30
2023-04-13T01:34:45.826Z,3.08
2023-04-13T01:37:13.217Z,3.08
2023-04-13T01:39:41.285Z,3.13
2023-04-13T01:42:52.603Z,2.50
2023-04-13T01:45:27.632Z,2.70
2023-04-13T01:48:31.740Z,2.58
2023-04-13T01:51:20.360Z,2.45
2023-04-13T01:53:57.343Z,3.25
2023-04-13T01:56:26.657Z,3.05
2023-04-13T01:59:00.196Z,2.83
2023-04-13T02:01:29.209Z,3.30
2023-04-13T02:03:58.893Z,3.53
2023-04-13T02:06:30.994Z,3.40
2023-04-13T02:08:59.472Z,3.80
2023-04-13T02:11:28.624Z,3.58
2023-04-13T02:13:58.275Z,3.95
2023-04-13T02:16:25.774Z,4.10
2023-04-13T02:18:52.952Z,4.32
2023-04-13T02:21:22.237Z,3.90
2023-04-13T02:23:52.613Z,3.60
2023-04-13T02:26:22.058Z,3.40
2023-04-13T02:28:51.367Z,3.78
2023-04-13T02:31:20.025Z,4.03
2023-04-13T02:33:47.725Z,3.80
2023-04-13T02:36:17.632Z,3.10
2023-04-13T02:38:54.812Z,3.30
2023-04-13T02:41:29.768Z,3.30
2023-04-13T02:43:57.928Z,3.58
2023-04-13T02:46:28.916Z,4.15
2023-04-13T02:49:06.564Z,4.15
2023-04-13T02:51:40.296Z,3.75
2023-04-13T02:54:11.380Z,3.80
2023-04-13T02:56:41.363Z,3.63
2023-04-13T02:59:09.219Z,4.47
2023-04-13T03:01:36.660Z,3.90
2023-04-13T03:04:04.410Z,3.50
2023-04-13T03:06:31.797Z,3.05
2023-04-13T03:09:01.814Z,3.17
2023-04-13T03:11:36.715Z,2.80
2023-04-13T03:14:21.213Z,3.10
2023-04-13T03:16:54.707Z,2.92
2023-04-13T03:19:26.607Z,2.58
2023-04-13T03:21:54.207Z,2.35
2023-04-13T03:24:28.611Z,3.00
2023-04-13T03:26:59.562Z,2.70
2023-04-13T03:29:33.917Z,2.95
2023-04-13T03:32:01.436Z,2.42
2023-04-13T03:34:31.924Z,2.78
2023-04-13T03:37:02.933Z,3.33
2023-04-13T03:39:30.264Z,2.75
2023-04-13T03:41:58.146Z,2.47
2023-04-13T03:44:26.357Z,2.60
2023-04-13T03:46:53.706Z,2.25
2023-04-13T03:49:30.618Z,2.30
2023-04-13T03:51:59.197Z,2.67
2023-04-13T03:54:28.796Z,2.33
2023-04-13T03:57:00.747Z,2.55
2023-04-13T03:59:30.745Z,2.60
2023-04-13T04:02:18.168Z,3.00
2023-04-13T04:04:46.703Z,2.40
2023-04-13T04:07:16.536Z,2.30
2023-04-13T04:09:44.122Z,2.42
2023-04-13T04:12:13.757Z,2.53
2023-04-13T04:14:43.223Z,3.15
2023-04-13T04:17:19.130Z,2.50
2023-04-13T04:19:46.886Z,2.53
2023-04-13T04:22:15.800Z,2.75
2023-04-13T04:24:43.270Z,2.63
2023-04-13T04:27:42.678Z,2.30
2023-04-13T04:30:11.049Z,2.65
2023-04-13T04:32:40.787Z,2.50
2023-04-13T04:35:14.406Z,2.30
2023-04-13T04:37:51.287Z,2.42
2023-04-13T04:41:28.606Z,2.78
2023-04-13T04:44:03.592Z,3.25
2023-04-13T04:46:38.801Z,3.28
2023-04-13T04:49:11.323Z,3.85
2023-04-13T04:51:39.577Z,3.47
2023-04-13T04:54:07.579Z,3.53
2023-04-13T04:56:34.887Z,2.83
2023-04-13T04:59:02.065Z,2.40
2023-04-13T05:01:43.413Z,2.30
2023-04-13T05:04:13.148Z,1.80
2023-04-13T05:07:17.850Z,1.55
2023-04-13T05:09:45.768Z,1.58
2023-04-13T05:12:13.100Z,1.77
2023-04-13T05:14:43.314Z,1.67
2023-04-13T05:17:12.887Z,1.67
2023-04-13T05:19:41.174Z,1.85
2023-04-13T05:22:16.228Z,1.70
2023-04-13T05:24:50.169Z,1.48
2023-04-13T05:27:18.194Z,1.58
2023-04-13T05:29:47.549Z,1.45
2023-04-13T05:32:18.522Z,1.48
2023-04-13T05:34:47.693Z,1.42
2023-04-13T05:37:20.794Z,2.03
2023-04-13T05:39:47.976Z,1.50
2023-04-13T05:42:17.976Z,1.85
2023-04-13T05:44:45.869Z,1.67
2023-04-13T05:47:14.586Z,1.52
2023-04-13T05:49:44.580Z,1.52
2023-04-13T05:52:14.934Z,1.73
2023-04-13T05:54:45.158Z,1.67
2023-04-13T05:57:12.240Z,1.80
2023-04-13T05:59:45.073Z,1.70
2023-04-13T06:02:14.930Z,1.65
2023-04-13T06:04:43.546Z,1.58
2023-04-13T06:10:44.592Z,1.50
2023-04-13T06:13:12.559Z,2.33
2023-04-13T06:15:40.611Z,1.45
2023-04-13T06:18:07.823Z,1.80
2023-04-13T06:20:35.179Z,1.73
2023-04-13T06:23:02.402Z,1.60
2023-04-13T06:25:31.068Z,1.55
2023-04-13T06:28:01.196Z,1.77
2023-04-13T06:30:28.899Z,1.55
2023-04-13T06:34:08.439Z,1.63
2023-04-13T06:36:40.642Z,1.67
2023-04-13T06:39:10.522Z,2.08
2023-04-13T06:41:39.688Z,2.25
2023-04-13T06:47:05.936Z,1.30
2023-04-13T06:49:34.207Z,1.65
2023-04-13T06:52:02.598Z,1.75
2023-04-13T06:54:30.569Z,1.65
2023-04-13T06:57:03.989Z,1.25
2023-04-13T06:59:31.278Z,1.75
2023-04-13T07:01:58.525Z,2.72
2023-04-13T07:04:29.119Z,1.48
2023-04-13T07:06:58.185Z,1.50
2023-04-13T07:09:25.980Z,1.40
2023-04-13T07:11:53.556Z,1.80
2023-04-13T07:14:21.325Z,1.58
2023-04-13T07:16:48.995Z,2.00
2023-04-13T07:19:17.094Z,1.75
2023-04-13T07:21:44.286Z,1.67
2023-04-13T07:24:11.400Z,1.83
2023-04-13T07:26:42.316Z,1.40
2023-04-13T07:29:13.560Z,1.75
2023-04-13T07:31:45.006Z,2.28
2023-04-13T07:34:43.674Z,1.48
2023-04-13T07:37:11.324Z,1.05
2023-04-13T07:39:38.751Z,1.50
2023-04-13T07:42:06.157Z,1.27
2023-04-13T07:44:41.300Z,1.33
2023-04-13T07:47:09.039Z,1.40
2023-04-13T07:49:39.282Z,0.95
2023-04-13T07:52:13.075Z,1.30
2023-04-13T07:54:41.444Z,1.30
2023-04-13T07:57:10.651Z,1.10
2023-04-13T07:59:43.650Z,1.20
2023-04-13T08:02:11.413Z,1.30
2023-04-13T08:04:41.679Z,1.20
2023-04-13T08:07:09.420Z,1.20
2023-04-13T08:09:39.356Z,1.30
2023-04-13T08:12:08.381Z,1.00
2023-04-13T08:14:40.222Z,1.13
2023-04-13T08:17:08.123Z,1.23
2023-04-13T08:19:35.574Z,1.20
2023-04-13T08:22:05.109Z,0.90
2023-04-13T08:24:32.248Z,1.20
2023-04-13T08:26:59.432Z,2.70
2023-04-13T08:29:27.857Z,1.17
2023-04-13T08:31:57.098Z,0.90
2023-04-13T08:34:25.110Z,1.48
2023-04-13T08:36:55.189Z,0.82
2023-04-13T08:39:25.311Z,0.90
2023-04-13T08:41:52.465Z,0.82
2023-04-13T08:44:21.491Z,0.85
2023-04-13T08:46:52.592Z,0.80
2023-04-13T08:49:27.462Z,0.82
2023-04-13T08:52:16.736Z,1.23
2023-04-13T08:54:47.833Z,0.80
2023-04-13T08:57:21.435Z,0.70
2023-04-13T08:59:52.516Z,1.40
2023-04-13T09:02:28.634Z,1.30
2023-04-13T09:05:06.320Z,1.08
2023-04-13T09:07:36.941Z,1.23
2023-04-13T09:10:10.754Z,1.50
2023-04-13T09:12:41.250Z,1.10
2023-04-13T09:15:11.503Z,1.33
2023-04-13T09:17:46.677Z,2.28
2023-04-13T09:20:22.979Z,1.83
2023-04-13T09:22:51.654Z,1.77
2023-04-13T09:25:26.318Z,1.65
2023-04-13T09:27:54.755Z,1.90
2023-04-13T09:30:26.314Z,2.83
2023-04-13T09:33:07.154Z,2.97
2023-04-13T09:35:35.590Z,2.70
2023-04-13T09:38:03.270Z,2.63
2023-04-13T09:40:31.040Z,3.25
2023-04-13T09:43:00.955Z,3.22
2023-04-13T10:18:12.031Z,3.50
2023-04-13T10:20:40.515Z,3.45
2023-04-13T10:23:08.196Z,1.42
2023-04-13T10:25:38.334Z,1.52
2023-04-13T10:28:07.220Z,1.30
2023-04-13T10:30:34.314Z,1.02
2023-04-13T10:33:10.933Z,1.15
2023-04-13T10:35:39.473Z,0.90
2023-04-13T10:38:09.377Z,1.77
2023-04-13T10:40:45.092Z,1.20
2023-04-13T10:43:12.722Z,1.15
2023-04-13T10:45:39.943Z,0.98
2023-04-13T10:48:07.753Z,0.80
2023-04-13T10:50:34.999Z,1.00
2023-04-13T10:53:09.912Z,1.30
2023-04-13T10:55:37.053Z,1.08
2023-04-13T10:58:15.307Z,0.90
2023-04-13T11:00:46.749Z,1.10
2023-04-13T11:03:16.783Z,1.15
2023-04-13T11:05:46.199Z,1.05
2023-04-13T11:08:21.159Z,1.08
2023-04-13T11:10:56.050Z,0.95
2023-04-13T11:13:26.905Z,1.50
2023-04-13T11:16:14.554Z,1.02
2023-04-13T11:18:41.709Z,1.25
2023-04-13T11:21:18.378Z,1.65
2023-04-13T11:23:54.480Z,1.58
2023-04-13T11:29:03.756Z,1.65
2023-04-13T11:31:42.053Z,0.93
2023-04-13T11:34:14.026Z,0.98
2023-04-13T11:36:43.280Z,1.30
2023-04-13T11:39:10.986Z,1.52
2023-04-13T11:41:44.634Z,1.90
2023-04-13T11:44:12.572Z,1.30
2023-04-13T11:46:39.791Z,0.93
2023-04-13T11:49:07.434Z,1.10
2023-04-13T11:51:35.250Z,1.17
2023-04-13T11:54:02.944Z,1.30
2023-04-13T11:56:31.226Z,1.42
2023-04-13T11:58:58.863Z,0.98
2023-04-13T12:01:31.055Z,1.20
2023-04-13T12:04:15.080Z,1.10
2023-04-13T12:06:46.402Z,1.15
2023-04-13T12:09:17.757Z,1.40
2023-04-13T12:11:54.343Z,1.15
2023-04-13T12:19:28.587Z,1.10
2023-04-13T12:21:58.008Z,1.50
2023-04-13T12:24:39.302Z,1.45
2023-04-13T12:29:38.857Z,1.38
2023-04-13T12:32:14.384Z,1.30
2023-04-13T12:34:43.563Z,1.08
2023-04-13T12:37:11.967Z,1.38
2023-04-13T12:39:39.358Z,1.42
2023-04-13T12:42:06.610Z,1.00
2023-04-13T12:44:34.536Z,1.42
2023-04-13T12:47:02.574Z,1.10
2023-04-13T12:49:30.305Z,1.00
2023-04-13T12:51:57.713Z,1.10
2023-04-13T12:54:25.005Z,1.27
2023-04-13T12:56:52.283Z,1.02
2023-04-13T12:59:22.164Z,1.20
2023-04-13T13:01:49.931Z,0.90
2023-04-13T13:04:17.701Z,1.35
2023-04-13T13:06:44.955Z,1.02
2023-04-13T13:09:12.083Z,0.90
2023-04-13T13:11:39.287Z,1.08
2023-04-13T13:15:16.725Z,1.08
2023-04-13T13:17:44.280Z,1.30
2023-04-13T13:20:13.491Z,1.00
2023-04-13T13:22:40.688Z,1.10
2023-04-13T13:25:08.866Z,0.90
2023-04-13T13:28:10.455Z,1.50
2023-04-13T13:30:27.217Z,1.30
2023-04-13T13:32:54.498Z,1.08
2023-04-13T13:35:22.052Z,1.27
2023-04-13T13:37:49.114Z,1.10
2023-04-13T13:40:49.104Z,1.50
2023-04-13T13:43:21.510Z,1.20
2023-04-13T13:45:49.026Z,1.20
2023-04-13T13:48:16.714Z,1.50
2023-04-13T13:50:56.103Z,1.67
2023-04-13T13:53:25.292Z,1.20
2023-04-13T13:55:53.143Z,1.38
2023-04-13T13:58:20.235Z,0.95
2023-04-13T14:00:47.441Z,1.58
2023-04-13T14:03:16.621Z,1.70
2023-04-13T14:05:43.898Z,1.77
2023-04-13T14:08:11.402Z,1.60
2023-04-13T14:10:38.535Z,1.80
2023-04-13T14:13:06.344Z,1.02
2023-04-13T14:15:33.735Z,1.33
2023-04-13T14:20:32.504Z,1.58
2023-04-13T14:22:59.657Z,2.10
2023-04-13T14:25:26.877Z,1.77
2023-04-13T14:27:54.017Z,1.77
2023-04-13T14:30:23.162Z,1.77
2023-04-13T14:32:52.141Z,0.90
2023-04-13T14:35:20.210Z,1.10
2023-04-13T14:37:47.695Z,1.02
2023-04-13T14:40:17.224Z,1.48
2023-04-13T14:42:45.776Z,1.23
2023-04-13T14:45:13.503Z,1.42
2023-04-13T14:47:41.188Z,1.42
2023-04-13T14:50:09.960Z,1.25
2023-04-13T14:52:37.199Z,1.15
2023-04-13T14:55:04.939Z,1.25
2023-04-13T14:57:32.552Z,1.65
2023-04-13T14:59:59.577Z,1.60
2023-04-13T15:02:29.010Z,1.02
2023-04-13T15:04:56.421Z,1.20
2023-04-13T15:07:30.031Z,1.23
2023-04-13T15:09:59.011Z,1.45
2023-04-13T15:12:26.213Z,1.90
2023-04-13T15:14:53.449Z,1.73
2023-04-13T15:17:21.244Z,2.13
2023-04-13T15:19:48.801Z,1.80
2023-04-13T15:22:16.112Z,2.20
2023-04-13T15:24:43.195Z,1.95
2023-04-13T15:27:10.544Z,1.95
2023-04-13T15:29:37.739Z,2.03
2023-04-13T15:32:05.394Z,1.85
2023-04-13T15:34:32.509Z,1.85
2023-04-13T15:36:59.701Z,1.30
2023-04-13T15:39:27.784Z,1.90
2023-04-13T15:41:55.331Z,1.95
2023-04-13T15:44:22.433Z,2.17
2023-04-13T15:46:49.612Z,1.50
2023-04-13T15:49:16.679Z,1.50
2023-04-13T15:52:15.920Z,1.00
2023-04-13T15:54:43.009Z,1.35
2023-04-13T15:57:10.351Z,1.67
2023-04-13T15:59:37.552Z,1.67
2023-04-13T16:02:04.784Z,1.67
2023-04-13T16:04:32.649Z,1.60
2023-04-13T16:09:30.858Z,1.60
2023-04-13T16:11:57.963Z,1.30
2023-04-13T16:14:25.493Z,1.40
2023-04-13T16:17:00.006Z,1.70
2023-04-13T16:19:29.053Z,1.60
2023-04-13T16:21:56.148Z,1.52
2023-04-13T16:24:23.249Z,1.40
2023-04-13T16:26:50.365Z,2.20
2023-04-13T16:29:18.021Z,1.75
2023-04-13T16:31:48.370Z,2.80
2023-04-13T16:34:25.442Z,2.15
2023-04-13T16:36:53.522Z,2.13
2023-04-13T16:39:21.970Z,1.58
2023-04-13T16:41:49.183Z,1.73
2023-04-13T16:44:16.534Z,2.10
2023-04-13T16:46:43.733Z,1.65
2023-04-13T16:49:11.116Z,1.95
2023-04-13T16:51:38.244Z,1.98
2023-04-13T16:54:11.720Z,2.00
2023-04-13T16:56:38.896Z,2.40
2023-04-13T16:59:06.883Z,2.63
2023-04-13T17:01:37.159Z,2.35
2023-04-13T17:04:05.952Z,2.83
2023-04-13T17:06:37.503Z,2.63
2023-04-13T17:09:05.742Z,2.92
2023-04-13T17:11:33.037Z,2.50
2023-04-13T17:14:00.588Z,2.15
2023-04-13T17:16:29.608Z,2.38
2023-04-13T17:18:57.151Z,2.05
2023-04-13T17:21:24.770Z,1.90
2023-04-13T17:23:51.931Z,2.00
2023-04-13T17:26:19.174Z,1.25
2023-04-13T17:28:46.752Z,1.75
2023-04-13T17:31:14.710Z,1.75
2023-04-13T17:33:41.920Z,1.92
2023-04-13T17:36:09.119Z,2.22
2023-04-13T17:38:36.486Z,2.08
2023-04-13T17:41:04.284Z,2.08
2023-04-13T17:43:31.647Z,1.90
2023-04-13T17:45:58.890Z,1.92
2023-04-13T17:48:26.333Z,1.92
2023-04-13T17:50:53.588Z,2.20
2023-04-13T17:53:20.764Z,2.15
2023-04-13T17:55:47.876Z,1.73
2023-04-13T17:58:14.966Z,1.92
2023-04-13T18:00:42.106Z,1.90
2023-04-13T18:03:09.749Z,1.50
2023-04-13T18:05:37.134Z,1.85
2023-04-13T18:08:04.397Z,1.48
2023-04-13T18:10:31.525Z,1.63
2023-04-13T18:13:01.688Z,1.50
2023-04-13T18:15:28.868Z,1.65
2023-04-13T18:17:56.057Z,1.60
2023-04-13T18:20:23.266Z,1.63
2023-04-13T18:22:50.449Z,1.77
2023-04-13T18:25:17.621Z,2.20
2023-04-13T18:27:44.749Z,2.03
2023-04-13T18:30:12.946Z,1.92
2023-04-13T18:32:40.122Z,2.15
2023-04-13T18:35:07.887Z,2.28
2023-04-13T18:37:35.032Z,2.80
2023-04-13T18:40:04.535Z,2.35
2023-04-13T18:42:33.539Z,2.78
2023-04-13T18:46:10.098Z,2.65
2023-04-13T18:48:37.301Z,2.58
2023-04-13T18:51:04.585Z,2.47
2023-04-13T18:53:31.852Z,2.30
2023-04-13T18:55:59.169Z,2.45
2023-04-13T18:58:27.312Z,2.30
2023-04-13T19:01:00.095Z,2.75
2023-04-13T19:03:28.030Z,2.70
2023-04-13T19:05:56.393Z,3.38
2023-04-13T19:08:23.631Z,3.78
2023-04-13T19:10:51.619Z,3.53
2023-04-13T19:13:18.779Z,3.58
2023-04-13T19:15:46.865Z,3.08
2023-04-13T19:18:14.358Z,4.18
2023-04-13T19:20:41.497Z,4.40
2023-04-13T19:23:08.715Z,3.90
2023-04-13T19:25:35.926Z,4.50
2023-04-13T19:28:03.209Z,4.85
2023-04-13T19:30:30.601Z,3.63
2023-04-13T19:32:58.636Z,4.28
2023-04-13T19:35:26.417Z,2.65
2023-04-13T19:37:53.738Z,2.33
2023-04-13T19:40:23.260Z,2.13
2023-04-13T19:42:50.496Z,1.95
2023-04-13T19:45:17.877Z,2.22
2023-04-13T19:47:45.499Z,2.22
2023-04-13T19:50:14.464Z,2.45
2023-04-13T19:52:42.531Z,2.55
2023-04-13T19:55:11.034Z,2.50
2023-04-13T19:57:42.186Z,1.77
2023-04-13T20:00:20.792Z,2.25
2023-04-13T20:02:50.857Z,2.50
2023-04-13T20:05:19.877Z,2.28
2023-04-13T20:07:47.152Z,1.55
2023-04-13T20:10:14.360Z,2.08
2023-04-13T20:12:41.460Z,2.50
2023-04-13T20:15:09.016Z,2.70
2023-04-13T20:17:36.269Z,2.97
2023-04-13T20:20:04.245Z,3.05
2023-04-13T20:22:31.320Z,3.20
2023-04-13T20:24:58.434Z,3.28
2023-04-13T20:27:25.750Z,2.35
2023-04-13T20:29:53.162Z,2.45
2023-04-13T20:32:20.579Z,2.33
2023-04-13T20:34:49.481Z,2.47
2023-04-13T20:37:18.652Z,2.40
2023-04-13T20:39:53.101Z,2.28
2023-04-13T20:42:22.527Z,2.58
2023-04-13T20:44:57.644Z,3.13
2023-04-13T20:47:28.845Z,2.88
2023-04-13T20:49:57.650Z,2.45
2023-04-13T20:52:26.050Z,2.22
2023-04-13T20:54:54.826Z,3.55
2023-04-13T20:57:22.381Z,2.50
2023-04-13T20:59:49.807Z,2.33
2023-04-13T21:02:17.204Z,2.28
2023-04-13T21:04:44.440Z,2.80
2023-04-13T21:07:14.074Z,3.33
2023-04-13T21:09:41.718Z,2.45
2023-04-13T21:12:09.021Z,2.40
2023-04-13T21:14:36.230Z,2.25
2023-04-13T21:17:03.365Z,2.28
2023-04-13T21:19:30.553Z,2.20
2023-04-13T21:23:07.028Z,2.72
2023-04-13T21:25:34.151Z,1.83
2023-04-13T21:28:02.898Z,2.33
2023-04-13T21:30:30.050Z,1.98
2023-04-13T21:32:57.213Z,2.60
2023-04-13T21:35:24.384Z,2.53
2023-04-13T21:37:51.499Z,2.30
2023-04-13T21:40:18.735Z,2.13
2023-04-13T21:42:45.941Z,2.65
2023-04-13T21:45:13.498Z,2.60
2023-04-13T21:47:40.679Z,2.47
2023-04-13T21:50:08.254Z,3.00
2023-04-13T21:52:35.517Z,2.75
2023-04-13T21:55:03.516Z,2.85
2023-04-13T21:57:30.712Z,3.20
2023-04-13T21:59:57.902Z,2.70
2023-04-13T22:02:25.108Z,2.58
2023-04-13T22:04:52.274Z,2.65
2023-04-13T22:07:25.883Z,2.80
2023-04-13T22:09:59.653Z,3.20
2023-04-13T22:12:26.895Z,2.42
2023-04-13T22:14:54.273Z,2.67
2023-04-13T22:17:21.489Z,2.40
2023-04-13T22:19:48.573Z,2.45
2023-04-13T22:22:15.672Z,2.50
2023-04-13T22:24:42.783Z,3.15
2023-04-13T22:27:09.860Z,2.85
2023-04-13T22:29:37.000Z,2.50
2023-04-13T22:32:04.100Z,2.67
2023-04-13T22:34:31.515Z,2.85
2023-04-13T22:36:58.794Z,2.83
2023-04-13T22:39:25.921Z,3.13
2023-04-13T22:41:53.077Z,2.85
2023-04-13T22:44:20.181Z,2.40
2023-04-13T22:46:47.271Z,2.30
2023-04-13T22:49:14.397Z,2.22
2023-04-13T22:51:41.605Z,2.53
2023-04-13T22:54:08.701Z,2.33
2023-04-13T22:56:35.855Z,2.38
2023-04-13T22:59:03.331Z,2.65
2023-04-13T23:01:30.748Z,2.10
2023-04-13T23:03:58.134Z,2.60
2023-04-13T23:06:25.472Z,2.00
2023-04-13T23:08:52.622Z,2.47
2023-04-13T23:11:19.654Z,2.58
2023-04-13T23:13:46.924Z,2.67
2023-04-13T23:16:14.097Z,2.53
2023-04-13T23:18:41.285Z,2.47
2023-04-13T23:21:12.653Z,2.25
2023-04-13T23:23:40.192Z,2.17
2023-04-13T23:26:07.490Z,2.35
2023-04-13T23:28:34.619Z,2.83
2023-04-13T23:31:09.052Z,2.30
2023-04-13T23:33:36.527Z,2.70
2023-04-13T23:36:35.383Z,2.10
2023-04-13T23:39:02.759Z,2.47
2023-04-13T23:41:29.981Z,2.80
2023-04-13T23:43:57.030Z,2.22
2023-04-13T23:46:25.002Z,2.58
2023-04-13T23:48:52.080Z,2.78
2023-04-13T23:51:19.151Z,2.28
2023-04-13T23:53:46.534Z,2.10
2023-04-13T23:56:13.616Z,2.17
2023-04-13T23:58:40.779Z,2.53
